^^
Station Historical Data
 
Daily Summary for July 04, 2015 Units:  English    Metric   Both
« Previous Day
Next Day »
Daily Weekly Monthly Yearly Custom
  Current: High: Low: Average:
Temperature: 74.7 °F 74.7 °F 60.9 °F 64.7 °F
Dew Point: 60.8 °F 60.8 °F 57.0 °F 58.5 °F
Humidity: 62% 89% 61% 81%
Wind Speed: 1.2mph 3.5mph 0.0mph 2mph
Wind Gust: 0.0mph 3.5mph - -
WindNorth - - South
Pressure: 29.57 in 29.64 in 29.57 in -
Precipitation: 0.00 in      
Historical Graphs
 
 
Tabular Data for July 04, 2015
Time Temperature Dew Point Pressure Wind Wind Speed Wind Gust Humidity Rainfall Rate (Hourly)
00:00 68.8 °F 59.0 °F 29.64 in Calm     71% 0.00 in
00:06 68.4 °F 59.0 °F 29.64 in Calm     72% 0.00 in
00:10 68.3 °F 59.3 °F 29.64 in Calm     73% 0.00 in
00:16 67.9 °F 59.3 °F 29.64 in Calm     74% 0.00 in
00:21 67.8 °F 59.2 °F 29.64 in Calm     74% 0.00 in
00:26 67.6 °F 59.4 °F 29.63 in Calm     75% 0.00 in
00:31 67.6 °F 59.4 °F 29.63 in Calm     75% 0.00 in
00:36 67.4 °F 59.2 °F 29.64 in Calm     75% 0.00 in
00:41 67.3 °F 59.1 °F 29.63 in Calm     75% 0.00 in
00:46 67.1 °F 58.9 °F 29.63 in Calm     75% 0.00 in
00:51 66.9 °F 58.7 °F 29.63 in Calm     75% 0.00 in
00:56 66.8 °F 59.0 °F 29.63 in Calm     76% 0.00 in
01:01 66.4 °F 58.6 °F 29.62 in Calm     76% 0.00 in
01:06 66.1 °F 58.7 °F 29.61 in Calm     77% 0.00 in
01:11 66.0 °F 58.9 °F 29.61 in Calm     78% 0.00 in
01:16 65.8 °F 58.7 °F 29.61 in Calm     78% 0.00 in
01:21 65.5 °F 58.8 °F 29.61 in Calm     79% 0.00 in
01:26 65.2 °F 58.5 °F 29.61 in Calm     79% 0.00 in
01:31 65.0 °F 58.7 °F 29.61 in Calm     80% 0.00 in
01:36 64.8 °F 58.8 °F 29.61 in Calm     81% 0.00 in
01:41 64.5 °F 58.5 °F 29.61 in Calm     81% 0.00 in
01:46 64.3 °F 58.3 °F 29.61 in Calm     81% 0.00 in
01:51 64.2 °F 58.6 °F 29.61 in Calm     82% 0.00 in
01:56 64.2 °F 58.6 °F 29.61 in Calm     82% 0.00 in
02:01 64.0 °F 58.7 °F 29.61 in Calm     83% 0.00 in
02:06 63.7 °F 58.4 °F 29.60 in Calm     83% 0.00 in
02:11 63.5 °F 58.2 °F 29.60 in Calm     83% 0.00 in
02:16 63.4 °F 58.5 °F 29.60 in Calm     84% 0.00 in
02:21 63.4 °F 58.8 °F 29.60 in Calm   0.1 mph 85% 0.00 in
02:26 63.2 °F 58.6 °F 29.60 in Calm     85% 0.00 in
02:36 62.6 °F 58.0 °F 29.60 in Calm     85% 0.00 in
02:41 62.4 °F 57.8 °F 29.61 in Calm     85% 0.00 in
02:46 62.3 °F 57.7 °F 29.61 in Calm     85% 0.00 in
02:51 62.1 °F 57.9 °F 29.61 in Calm     86% 0.00 in
02:56 62.3 °F 58.1 °F 29.61 in ESE 2.3 mph   86% 0.00 in
03:01 62.0 °F 58.1 °F 29.61 in Calm     87% 0.00 in
03:06 61.6 °F 57.7 °F 29.59 in Calm     87% 0.00 in
03:11 61.5 °F 57.6 °F 29.59 in Calm     87% 0.00 in
03:16 61.3 °F 57.4 °F 29.59 in Calm     87% 0.00 in
03:21 61.2 °F 57.6 °F 29.59 in Calm     88% 0.00 in
03:26 61.2 °F 57.6 °F 29.59 in Calm     88% 0.00 in
03:31 61.2 °F 57.6 °F 29.59 in Calm     88% 0.00 in
03:36 61.2 °F 57.9 °F 29.60 in Calm     89% 0.00 in
03:41 61.3 °F 58.0 °F 29.60 in Calm     89% 0.00 in
03:46 61.5 °F 58.2 °F 29.59 in Calm     89% 0.00 in
03:51 61.3 °F 58.0 °F 29.59 in Calm     89% 0.00 in
03:56 61.3 °F 58.0 °F 29.61 in Calm     89% 0.00 in
04:01 61.3 °F 58.0 °F 29.60 in Calm     89% 0.00 in
04:06 61.3 °F 58.0 °F 29.61 in Calm     89% 0.00 in
04:11 61.3 °F 58.0 °F 29.61 in Calm     89% 0.00 in
04:16 61.5 °F 58.2 °F 29.60 in Calm     89% 0.00 in
04:21 61.5 °F 58.2 °F 29.59 in Calm     89% 0.00 in
04:26 61.6 °F 58.3 °F 29.59 in Calm     89% 0.00 in
04:31 61.8 °F 58.5 °F 29.59 in Calm     89% 0.00 in
04:36 62.0 °F 58.4 °F 29.59 in Calm     88% 0.00 in
04:41 62.1 °F 58.5 °F 29.59 in Calm     88% 0.00 in
04:46 62.4 °F 58.5 °F 29.59 in Calm     87% 0.00 in
04:51 62.6 °F 58.4 °F 29.59 in Calm     86% 0.00 in
04:56 62.6 °F 58.0 °F 29.59 in Calm     85% 0.00 in
05:01 62.6 °F 58.0 °F 29.59 in Calm     85% 0.00 in
05:06 62.4 °F 57.8 °F 29.60 in Calm     85% 0.00 in
05:11 62.3 °F 57.7 °F 29.60 in Calm     85% 0.00 in
05:16 62.0 °F 57.4 °F 29.60 in Calm     85% 0.00 in
05:21 61.6 °F 57.0 °F 29.59 in Calm     85% 0.00 in
05:27 61.5 °F 57.3 °F 29.60 in Calm     86% 0.00 in
05:32 61.3 °F 57.1 °F 29.60 in Calm     86% 0.00 in
05:37 61.2 °F 57.3 °F 29.59 in Calm     87% 0.00 in
05:42 61.2 °F 57.3 °F 29.59 in Calm     87% 0.00 in
05:47 61.0 °F 57.1 °F 29.59 in Calm     87% 0.00 in
05:52 60.9 °F 57.3 °F 29.59 in Calm     88% 0.00 in
05:57 60.9 °F 57.3 °F 29.59 in Calm     88% 0.00 in
06:02 60.9 °F 57.3 °F 29.59 in Calm     88% 0.00 in
06:07 60.9 °F 57.3 °F 29.60 in Calm     88% 0.00 in
06:12 60.9 °F 57.6 °F 29.61 in Calm     89% 0.00 in
06:17 60.9 °F 57.6 °F 29.60 in Calm     89% 0.00 in
06:22 60.9 °F 57.6 °F 29.60 in Calm     89% 0.00 in
06:27 61.2 °F 57.9 °F 29.60 in Calm     89% 0.00 in
06:32 61.8 °F 58.5 °F 29.59 in ESE 2.3 mph 2.3 mph 89% 0.00 in
06:37 62.4 °F 58.8 °F 29.60 in Calm     88% 0.00 in
06:42 63.2 °F 59.3 °F 29.59 in Calm     87% 0.00 in
06:47 63.5 °F 58.9 °F 29.58 in Calm     85% 0.00 in
06:52 63.9 °F 59.0 °F 29.58 in Calm     84% 0.00 in
06:57 64.3 °F 59.0 °F 29.58 in Calm     83% 0.00 in
07:02 65.0 °F 59.4 °F 29.59 in Calm     82% 0.00 in
07:07 65.5 °F 59.5 °F 29.60 in ESE 1.2 mph 1.2 mph 81% 0.00 in
07:12 65.6 °F 59.3 °F 29.59 in Calm     80% 0.00 in
07:17 66.0 °F 59.3 °F 29.60 in ESE 1.2 mph   79% 0.00 in
07:22 66.0 °F 58.9 °F 29.60 in ESE 1.2 mph 1.2 mph 78% 0.00 in
07:27 66.4 °F 59.3 °F 29.60 in Calm     78% 0.00 in
07:32 66.8 °F 59.0 °F 29.59 in NNW 3.5 mph 3.5 mph 76% 0.00 in
07:37 66.9 °F 58.3 °F 29.58 in NNW 3.5 mph 3.5 mph 74% 0.00 in
07:42 67.1 °F 58.2 °F 29.58 in NNW 1.2 mph 1.2 mph 73% 0.00 in
07:47 67.1 °F 57.8 °F 29.58 in NNW 3.5 mph 3.5 mph 72% 0.00 in
07:52 67.1 °F 57.8 °F 29.58 in NNW 2.3 mph 2.3 mph 72% 0.00 in
07:57 67.6 °F 58.2 °F 29.58 in Calm   0.1 mph 72% 0.00 in
08:02 68.4 °F 59.8 °F 29.60 in Calm     74% 0.00 in
08:07 68.9 °F 59.1 °F 29.60 in NNW 1.2 mph   71% 0.00 in
08:12 69.8 °F 59.2 °F 29.59 in NNW 1.2 mph 1.2 mph 69% 0.00 in
08:17 69.9 °F 58.4 °F 29.60 in NNW 2.3 mph 2.3 mph 67% 0.00 in
08:22 70.3 °F 58.8 °F 29.60 in NNW 1.2 mph 1.2 mph 67% 0.00 in
08:27 70.8 °F 58.9 °F 29.59 in NNW 2.3 mph 2.3 mph 66% 0.00 in
08:32 71.1 °F 58.7 °F 29.59 in NE 2.3 mph 2.3 mph 65% 0.00 in
08:37 71.3 °F 58.9 °F 29.59 in NE 2.3 mph 2.3 mph 65% 0.00 in
08:42 71.8 °F 59.4 °F 29.58 in NE 2.3 mph 2.3 mph 65% 0.00 in
08:47 72.3 °F 59.0 °F 29.59 in NE 2.3 mph 2.3 mph 63% 0.00 in
08:52 72.3 °F 59.4 °F 29.59 in NE 2.3 mph 2.3 mph 64% 0.00 in
09:02 72.7 °F 60.7 °F 29.59 in Calm     66% 0.00 in
09:07 73.3 °F 59.9 °F 29.58 in NNE 1.2 mph   63% 0.00 in
09:12 74.2 °F 59.9 °F 29.58 in North 1.2 mph 1.2 mph 61% 0.00 in
09:17 74.7 °F 60.8 °F 29.57 in North 1.2 mph   62% 0.00 in
Windsor CO Weather
Compliments of Weather Underground